Time;durP1;ratioP1;P1;durP2;ratioP2;P2;SDS_P1;SDS_P2;PMS_P1;PMS_P2;Temp;Humidity;BMP_temperature;BMP_pressure;BME280_temperature;BME280_humidity;BME280_pressure;Samples;Min_cycle;Max_cycle;Signal;HPM_P1;HPM_P2
2023/08/04 00:00:19;;;;;;;7.32;4.85;;;23.50;77.00;;;;;;4979750;28;20085;-70
2023/08/04 00:02:45;;;;;;;8.55;5.80;;;23.50;77.00;;;;;;4979222;28;20030;-71
2023/08/04 00:05:11;;;;;;;7.93;5.68;;;23.50;76.90;;;;;;4979208;28;20031;-70
2023/08/04 00:07:37;;;;;;;7.13;5.50;;;23.50;76.90;;;;;;4979553;28;20023;-71
2023/08/04 00:10:03;;;;;;;7.70;5.32;;;23.50;77.00;;;;;;4978844;28;20042;-71
2023/08/04 00:12:30;;;;;;;7.65;5.90;;;23.40;77.10;;;;;;4979032;28;20338;-71
2023/08/04 00:14:57;;;;;;;7.80;5.45;;;23.50;77.30;;;;;;4979309;28;20063;-71
2023/08/04 00:17:24;;;;;;;7.20;5.18;;;23.40;77.20;;;;;;4978878;28;20110;-70
2023/08/04 00:19:50;;;;;;;7.53;5.40;;;23.40;77.20;;;;;;4978959;28;20027;-70
2023/08/04 00:22:16;;;;;;;8.35;5.32;;;23.40;77.30;;;;;;4979440;28;20031;-70
2023/08/04 00:24:42;;;;;;;7.28;5.50;;;23.30;77.40;;;;;;4978811;28;20023;-70
2023/08/04 00:27:08;;;;;;;6.38;4.78;;;23.30;77.50;;;;;;4979370;28;20058;-71
2023/08/04 00:29:35;;;;;;;7.07;5.15;;;23.30;77.50;;;;;;4978937;28;20035;-71
2023/08/04 00:32:01;;;;;;;7.35;5.18;;;23.30;77.50;;;;;;4978018;28;20385;-70
2023/08/04 00:34:27;;;;;;;7.00;5.38;;;23.30;77.60;;;;;;4978880;28;20026;-70
2023/08/04 00:36:54;;;;;;;7.25;5.45;;;23.40;77.60;;;;;;4977791;28;20023;-70
2023/08/04 00:39:20;;;;;;;7.70;4.90;;;23.40;77.60;;;;;;4978568;28;20023;-71
2023/08/04 00:41:46;;;;;;;7.68;4.85;;;23.40;77.70;;;;;;4979102;28;20041;-71
2023/08/04 00:44:12;;;;;;;9.27;5.55;;;23.30;77.60;;;;;;4978523;28;20023;-71
2023/08/04 00:46:38;;;;;;;8.45;5.63;;;23.40;77.60;;;;;;4978431;28;20044;-71
2023/08/04 00:49:07;;;;;;;8.88;6.10;;;23.40;77.60;;;;;;4978280;28;20077;-71
2023/08/04 00:51:33;;;;;;;7.32;5.15;;;23.40;77.70;;;;;;4978234;28;20066;-71
2023/08/04 00:54:00;;;;;;;6.97;5.18;;;23.40;77.70;;;;;;4978598;28;20030;-71
2023/08/04 00:56:28;;;;;;;7.43;4.63;;;23.40;77.80;;;;;;4978253;28;20027;-70
2023/08/04 00:58:54;;;;;;;6.25;4.93;;;23.40;77.80;;;;;;4978359;28;20031;-71
2023/08/04 01:01:20;;;;;;;8.15;5.47;;;23.40;77.80;;;;;;4961122;28;20143;-71
2023/08/04 01:03:46;;;;;;;8.65;5.65;;;23.40;77.90;;;;;;4978126;28;20038;-70
2023/08/04 01:06:33;;;;;;;10.18;5.40;;;23.30;77.80;;;;;;4978046;28;20035;-71
2023/08/04 01:09:22;;;;;;;5.78;4.20;;;23.30;77.90;;;;;;4976684;28;20105;-70
2023/08/04 01:12:02;;;;;;;8.57;5.45;;;23.30;78.00;;;;;;4950502;28;20035;-71
2023/08/04 01:14:30;;;;;;;7.32;4.93;;;23.30;77.90;;;;;;4978172;28;20035;-71
2023/08/04 01:16:56;;;;;;;7.03;5.20;;;23.30;77.90;;;;;;4976985;28;20023;-71
2023/08/04 01:19:22;;;;;;;7.53;5.13;;;23.30;78.00;;;;;;4977924;28;20041;-71
2023/08/04 01:21:48;;;;;;;7.72;5.30;;;23.20;78.00;;;;;;4977714;28;20113;-71
2023/08/04 01:24:14;;;;;;;9.10;5.75;;;23.20;78.10;;;;;;4977990;28;20117;-71
2023/08/04 01:26:46;;;;;;;7.55;5.22;;;23.20;78.00;;;;;;4978206;28;20389;-71
2023/08/04 01:29:14;;;;;;;8.18;5.18;;;23.20;78.10;;;;;;4977673;28;20027;-71
2023/08/04 01:31:41;;;;;;;9.05;6.32;;;23.20;78.10;;;;;;4977784;28;20030;-71
2023/08/04 01:34:08;;;;;;;10.20;5.47;;;23.20;78.10;;;;;;4977585;28;20022;-70
2023/08/04 01:36:34;;;;;;;7.75;5.22;;;23.10;78.10;;;;;;4977474;28;20058;-71
2023/08/04 01:39:00;;;;;;;6.53;5.13;;;23.00;78.20;;;;;;4977591;28;20050;-71
2023/08/04 01:41:26;;;;;;;8.43;5.22;;;23.00;78.40;;;;;;4977656;28;20473;-71
2023/08/04 01:43:52;;;;;;;9.07;5.90;;;23.00;78.30;;;;;;4977858;28;20038;-71
2023/08/04 01:46:18;;;;;;;11.27;5.40;;;23.00;78.40;;;;;;4977367;28;20038;-71
2023/08/04 01:48:44;;;;;;;7.88;5.40;;;23.00;78.30;;;;;;4977396;28;20038;-71
2023/08/04 01:51:09;;;;;;;7.28;4.97;;;22.90;78.40;;;;;;4977454;28;20105;-71
2023/08/04 01:53:36;;;;;;;9.02;5.88;;;22.90;78.50;;;;;;4977189;28;20034;-71
2023/08/04 01:56:02;;;;;;;8.27;5.50;;;22.90;78.50;;;;;;4977712;28;20418;-71
2023/08/04 01:58:28;;;;;;;8.73;5.75;;;22.90;78.60;;;;;;4977284;28;20059;-71
2023/08/04 02:00:54;;;;;;;7.40;5.20;;;22.90;78.70;;;;;;4977310;28;20054;-70
2023/08/04 02:03:20;;;;;;;8.43;6.22;;;22.90;78.70;;;;;;4976652;28;20089;-71
2023/08/04 02:05:48;;;;;;;8.63;5.20;;;22.90;78.70;;;;;;4977028;28;20034;-71
2023/08/04 02:08:14;;;;;;;8.35;5.55;;;22.90;78.70;;;;;;4977022;28;20015;-71
2023/08/04 02:10:49;;;;;;;7.90;5.50;;;22.90;78.80;;;;;;4976718;28;20053;-71
2023/08/04 02:13:15;;;;;;;7.03;5.32;;;22.90;78.90;;;;;;4976801;28;20062;-71
2023/08/04 02:15:40;;;;;;;10.45;6.82;;;22.90;78.90;;;;;;4977113;28;20027;-71
2023/08/04 02:18:07;;;;;;;9.13;6.55;;;22.90;78.70;;;;;;4976737;28;20322;-71
2023/08/04 02:20:33;;;;;;;8.68;6.18;;;22.90;78.80;;;;;;4977013;28;20027;-71
2023/08/04 02:22:59;;;;;;;7.68;6.07;;;22.80;78.90;;;;;;4977261;28;20077;-71
2023/08/04 02:25:24;;;;;;;12.18;8.18;;;22.80;79.10;;;;;;4977200;28;20022;-71
2023/08/04 02:27:50;;;;;;;13.07;7.43;;;22.80;79.70;;;;;;4977006;28;20039;-71
2023/08/04 02:30:16;;;;;;;9.73;6.47;;;22.70;79.30;;;;;;4976893;28;20038;-71
2023/08/04 02:32:42;;;;;;;9.55;6.45;;;22.70;79.40;;;;;;4976813;28;20044;-71
2023/08/04 02:35:09;;;;;;;7.63;6.00;;;22.70;79.40;;;;;;4976598;28;20476;-71
2023/08/04 02:37:35;;;;;;;11.73;8.23;;;22.70;79.50;;;;;;4976914;28;20442;-71
2023/08/04 02:40:01;;;;;;;10.15;6.60;;;22.70;79.50;;;;;;4976711;28;20030;-71
2023/08/04 02:42:26;;;;;;;8.82;6.15;;;22.70;79.50;;;;;;4976712;28;20035;-71
2023/08/04 02:44:54;;;;;;;11.82;7.13;;;22.70;79.60;;;;;;4976652;28;20445;-71
2023/08/04 02:47:20;;;;;;;11.13;6.45;;;22.70;79.60;;;;;;4976269;28;20597;-71
2023/08/04 02:49:46;;;;;;;11.85;7.57;;;22.70;79.60;;;;;;4976364;28;20097;-71
2023/08/04 02:52:14;;;;;;;9.43;6.55;;;22.70;79.60;;;;;;4976292;28;20075;-71
2023/08/04 02:54:41;;;;;;;10.35;5.97;;;22.70;79.50;;;;;;4976283;28;20027;-71
2023/08/04 02:57:07;;;;;;;9.98;6.78;;;22.80;79.50;;;;;;4976332;28;20472;-71
2023/08/04 02:59:33;;;;;;;11.35;7.13;;;22.70;79.40;;;;;;4976235;28;20027;-71
2023/08/04 03:01:59;;;;;;;11.68;6.25;;;22.70;79.50;;;;;;4976295;28;20057;-71
2023/08/04 03:04:25;;;;;;;9.63;5.93;;;22.70;79.30;;;;;;4976750;28;20035;-71
2023/08/04 03:06:51;;;;;;;8.50;5.18;;;22.70;79.30;;;;;;4976708;28;20045;-71
2023/08/04 03:09:22;;;;;;;7.55;5.22;;;22.70;79.30;;;;;;4975912;28;20066;-71
2023/08/04 03:11:49;;;;;;;8.20;5.43;;;22.60;79.20;;;;;;4976626;28;20062;-71
2023/08/04 03:14:14;;;;;;;6.47;5.00;;;22.60;79.20;;;;;;4976163;28;20093;-71
2023/08/04 03:16:40;;;;;;;7.80;5.38;;;22.70;79.20;;;;;;4978453;28;20449;-71
2023/08/04 03:19:07;;;;;;;8.85;5.65;;;22.70;79.30;;;;;;4980183;28;20030;-71
2023/08/04 03:21:34;;;;;;;7.65;5.57;;;22.70;79.40;;;;;;4980478;28;20106;-71
2023/08/04 03:24:01;;;;;;;11.32;6.35;;;22.70;79.30;;;;;;4979125;28;20038;-71
2023/08/04 03:26:27;;;;;;;9.65;6.43;;;22.70;79.20;;;;;;4980177;28;20035;-71
2023/08/04 03:28:53;;;;;;;12.40;7.47;;;22.70;79.20;;;;;;4979845;28;20141;-71
2023/08/04 03:31:20;;;;;;;12.25;6.50;;;22.70;79.20;;;;;;4980015;28;20030;-71
2023/08/04 03:33:47;;;;;;;12.10;6.97;;;22.60;79.00;;;;;;4979731;28;20023;-71
2023/08/04 03:36:13;;;;;;;12.23;6.65;;;22.60;79.00;;;;;;4980303;28;20030;-71
2023/08/04 03:38:38;;;;;;;9.40;6.57;;;22.60;79.00;;;;;;4979625;28;20015;-71
2023/08/04 03:41:04;;;;;;;11.57;6.70;;;22.60;79.00;;;;;;4979659;28;20027;-71
2023/08/04 03:43:30;;;;;;;11.30;5.93;;;22.50;79.20;;;;;;4978720;28;20022;-71
2023/08/04 03:45:57;;;;;;;9.85;5.70;;;22.50;79.30;;;;;;4979601;28;20155;-71
2023/08/04 03:48:23;;;;;;;11.82;7.07;;;22.50;79.30;;;;;;4979951;28;20030;-71
2023/08/04 03:50:49;;;;;;;11.80;6.78;;;22.50;79.50;;;;;;4979406;28;20081;-71
2023/08/04 03:53:15;;;;;;;10.38;5.78;;;22.40;79.60;;;;;;4979983;28;20019;-71
2023/08/04 03:55:57;;;;;;;7.80;5.80;;;22.40;79.50;;;;;;4979317;28;20030;-71
2023/08/04 03:58:31;;;;;;;8.75;5.75;;;22.40;79.60;;;;;;4979496;28;20015;-71
2023/08/04 04:00:57;;;;;;;11.07;6.40;;;22.40;79.50;;;;;;4979283;28;20051;-71
2023/08/04 04:03:23;;;;;;;11.43;6.03;;;22.40;79.50;;;;;;4979544;28;20085;-71
2023/08/04 04:05:49;;;;;;;9.73;6.38;;;22.40;79.50;;;;;;4979227;28;20027;-71
2023/08/04 04:08:15;;;;;;;9.07;6.07;;;22.40;79.60;;;;;;4979148;28;20074;-71
2023/08/04 04:10:41;;;;;;;8.68;5.72;;;22.40;79.60;;;;;;4979017;28;20062;-71
2023/08/04 04:13:07;;;;;;;9.43;6.15;;;22.40;79.60;;;;;;4979256;28;20093;-71
2023/08/04 04:15:33;;;;;;;12.75;6.78;;;22.50;79.60;;;;;;4979035;28;20445;-71
2023/08/04 04:17:59;;;;;;;11.65;7.38;;;22.40;79.50;;;;;;4978946;28;20428;-71
2023/08/04 04:20:29;;;;;;;10.88;7.32;;;22.40;79.60;;;;;;4979194;28;20105;-72
2023/08/04 04:22:55;;;;;;;9.07;5.95;;;22.40;79.40;;;;;;4979147;28;20449;-71
2023/08/04 04:25:21;;;;;;;8.48;5.88;;;22.40;79.50;;;;;;4978884;28;20038;-71
2023/08/04 04:27:47;;;;;;;9.80;5.97;;;22.40;79.60;;;;;;4977699;28;20412;-71
2023/08/04 04:30:13;;;;;;;9.77;6.32;;;22.40;79.60;;;;;;4979489;28;20042;-71
2023/08/04 04:32:39;;;;;;;9.23;5.65;;;22.40;79.60;;;;;;4978950;28;20027;-71
2023/08/04 04:35:06;;;;;;;9.15;5.50;;;22.40;79.60;;;;;;4978596;28;20034;-71
2023/08/04 04:37:32;;;;;;;8.43;5.30;;;22.40;79.50;;;;;;4978553;28;20171;-71
2023/08/04 04:39:58;;;;;;;7.75;5.28;;;22.50;79.50;;;;;;4978849;28;20041;-71
2023/08/04 04:42:24;;;;;;;10.50;5.88;;;22.50;79.50;;;;;;4979064;28;20326;-71
2023/08/04 04:44:50;;;;;;;9.88;5.35;;;22.50;79.30;;;;;;4978464;28;20464;-71
2023/08/04 04:47:16;;;;;;;9.82;5.47;;;22.60;79.30;;;;;;4978380;28;20026;-71
2023/08/04 04:49:45;;;;;;;9.95;5.40;;;22.60;79.30;;;;;;4978633;28;20037;-71
2023/08/04 04:52:29;;;;;;;9.55;5.35;;;22.70;79.20;;;;;;4978788;28;20058;-70
2023/08/04 04:54:55;;;;;;;10.15;5.75;;;22.70;79.20;;;;;;4978848;28;20033;-71
2023/08/04 04:57:21;;;;;;;10.55;6.03;;;22.90;79.20;;;;;;4978706;28;20018;-71
2023/08/04 04:59:47;;;;;;;8.70;5.07;;;22.90;79.10;;;;;;4978238;28;20453;-71
2023/08/04 05:02:13;;;;;;;7.97;5.38;;;22.90;78.90;;;;;;4978691;28;20086;-71
2023/08/04 05:04:39;;;;;;;9.27;5.50;;;23.00;78.90;;;;;;4978066;28;20035;-71
2023/08/04 05:07:09;;;;;;;9.65;6.07;;;23.10;78.90;;;;;;4978070;28;20050;-71
2023/08/04 05:09:36;;;;;;;10.90;6.70;;;23.10;78.80;;;;;;4976609;28;20133;-71
2023/08/04 05:12:03;;;;;;;10.65;6.05;;;23.20;78.80;;;;;;4978177;28;20038;-70
2023/08/04 05:14:29;;;;;;;9.48;6.20;;;23.20;78.70;;;;;;4978496;28;20031;-71
2023/08/04 05:16:55;;;;;;;10.60;6.88;;;23.20;78.70;;;;;;4977830;28;20451;-72
2023/08/04 05:19:21;;;;;;;12.55;5.60;;;23.20;78.70;;;;;;4978092;28;20054;-71
2023/08/04 05:21:48;;;;;;;11.00;5.70;;;23.30;78.50;;;;;;4977822;28;20058;-71
2023/08/04 05:24:15;;;;;;;9.45;5.30;;;23.40;78.40;;;;;;4977769;28;20030;-71
2023/08/04 05:26:42;;;;;;;8.93;4.97;;;23.70;78.20;;;;;;4977722;28;20023;-71
2023/08/04 05:29:08;;;;;;;11.25;5.53;;;24.00;77.50;;;;;;4977523;28;20035;-71
2023/08/04 05:31:34;;;;;;;6.38;4.95;;;24.40;76.90;;;;;;4977555;28;20026;-71
2023/08/04 05:34:01;;;;;;;7.35;4.75;;;24.70;76.40;;;;;;4977552;28;20027;-71
2023/08/04 05:36:27;;;;;;;9.93;4.95;;;24.90;75.60;;;;;;4977389;28;20026;-69
2023/08/04 05:38:53;;;;;;;8.38;4.78;;;25.20;75.20;;;;;;4976706;28;20023;-69
2023/08/04 05:41:19;;;;;;;27.80;6.20;;;25.40;74.60;;;;;;4977955;28;20081;-70
2023/08/04 05:43:45;;;;;;;8.43;4.70;;;25.60;74.00;;;;;;4977600;28;20037;-70
2023/08/04 05:46:15;;;;;;;6.60;4.57;;;25.70;73.50;;;;;;4977570;28;20116;-70
2023/08/04 05:48:41;;;;;;;8.45;5.03;;;26.20;73.50;;;;;;4977083;28;20034;-70
2023/08/04 05:51:07;;;;;;;6.75;4.18;;;28.00;71.60;;;;;;4977344;28;20031;-71
2023/08/04 05:53:33;;;;;;;8.13;4.03;;;30.00;67.00;;;;;;4977213;28;20022;-72
2023/08/04 05:55:59;;;;;;;51.97;7.55;;;31.10;61.80;;;;;;4977429;28;20019;-72
2023/08/04 05:58:25;;;;;;;8.93;4.35;;;31.10;61.30;;;;;;4977353;28;20030;-72
2023/08/04 06:00:51;;;;;;;10.73;4.80;;;30.60;61.50;;;;;;4976096;28;20051;-72
2023/08/04 06:03:18;;;;;;;6.50;3.95;;;30.00;61.70;;;;;;4977493;28;20441;-71
2023/08/04 06:05:44;;;;;;;5.38;3.80;;;29.50;62.30;;;;;;4976965;28;20026;-71
2023/08/04 06:08:11;;;;;;;6.13;3.75;;;29.00;63.50;;;;;;4977375;28;20033;-71
2023/08/04 06:10:37;;;;;;;6.43;3.90;;;28.60;64.20;;;;;;4976840;28;20377;-70
2023/08/04 06:13:05;;;;;;;6.53;4.00;;;28.20;65.10;;;;;;4976754;28;20077;-71
2023/08/04 06:15:32;;;;;;;6.85;4.13;;;27.90;65.70;;;;;;4977013;28;20026;-72
2023/08/04 06:17:58;;;;;;;6.47;4.03;;;27.80;66.30;;;;;;4976741;28;20030;-72
2023/08/04 06:20:24;;;;;;;6.18;4.32;;;27.80;66.50;;;;;;4975795;28;20038;-72
2023/08/04 06:22:53;;;;;;;5.82;3.85;;;27.90;66.80;;;;;;4976665;28;20122;-72
2023/08/04 06:25:19;;;;;;;5.55;3.70;;;27.90;66.70;;;;;;4976681;28;20026;-72
2023/08/04 06:27:49;;;;;;;6.07;3.80;;;27.90;66.70;;;;;;4976531;28;20027;-72
2023/08/04 06:30:16;;;;;;;4.82;4.07;;;27.90;66.60;;;;;;4976535;28;20026;-72
2023/08/04 06:32:43;;;;;;;5.82;3.53;;;27.80;66.70;;;;;;4976425;28;20476;-72
2023/08/04 06:35:09;;;;;;;6.22;3.85;;;27.70;67.00;;;;;;4976504;28;20102;-72
2023/08/04 06:37:35;;;;;;;6.75;4.15;;;27.60;67.10;;;;;;4976699;28;20101;-72
2023/08/04 06:40:01;;;;;;;7.05;3.80;;;27.50;67.20;;;;;;4977015;28;20027;-72
2023/08/04 06:42:30;;;;;;;7.10;4.20;;;27.40;67.50;;;;;;4976958;28;20030;-72
2023/08/04 06:44:58;;;;;;;6.25;4.10;;;27.40;67.50;;;;;;4976438;28;20074;-71
2023/08/04 06:47:25;;;;;;;7.93;4.45;;;27.40;67.30;;;;;;4976372;28;20050;-72
2023/08/04 06:49:51;;;;;;;6.57;4.00;;;27.30;67.30;;;;;;4976822;28;20026;-72
2023/08/04 06:52:20;;;;;;;6.82;4.20;;;27.40;67.50;;;;;;4976297;28;20077;-72
2023/08/04 06:54:47;;;;;;;7.70;4.25;;;27.40;66.80;;;;;;4976324;28;20103;-72
2023/08/04 06:57:14;;;;;;;6.20;4.10;;;27.40;66.90;;;;;;4976210;28;20030;-72
2023/08/04 06:59:43;;;;;;;6.60;4.35;;;27.40;66.70;;;;;;4976345;28;20151;-72
2023/08/04 07:02:10;;;;;;;8.60;4.03;;;27.40;66.50;;;;;;4976156;28;20425;-72
2023/08/04 07:04:39;;;;;;;6.85;4.20;;;27.50;66.60;;;;;;4976242;28;20454;-72
2023/08/04 07:07:06;;;;;;;7.10;4.28;;;28.00;65.00;;;;;;4976153;28;20452;-72
2023/08/04 07:09:32;;;;;;;8.93;4.50;;;28.60;64.10;;;;;;4976318;28;20134;-72
2023/08/04 07:12:01;;;;;;;9.02;5.15;;;29.20;63.20;;;;;;4976154;28;20027;-72
2023/08/04 07:14:27;;;;;;;8.55;4.32;;;29.70;62.70;;;;;;4976173;28;20034;-72
2023/08/04 07:16:53;;;;;;;7.28;3.75;;;30.00;61.20;;;;;;4976362;28;20035;-72
2023/08/04 07:19:19;;;;;;;6.95;4.35;;;30.30;61.10;;;;;;4975993;28;20027;-73
2023/08/04 07:21:45;;;;;;;6.70;4.03;;;30.60;60.90;;;;;;4976075;28;20049;-73
2023/08/04 07:24:11;;;;;;;5.63;3.80;;;30.90;60.40;;;;;;4976069;28;20085;-73
2023/08/04 07:26:37;;;;;;;6.00;4.18;;;31.10;59.90;;;;;;4976544;28;20429;-73
2023/08/04 07:29:03;;;;;;;5.93;3.90;;;31.30;59.00;;;;;;4976487;28;20484;-72
2023/08/04 07:31:31;;;;;;;6.53;3.70;;;31.30;59.20;;;;;;4975282;28;20349;-73
2023/08/04 07:33:58;;;;;;;7.32;4.00;;;31.40;59.30;;;;;;4976678;28;20038;-73
2023/08/04 07:36:24;;;;;;;8.65;4.93;;;31.40;58.70;;;;;;4975070;28;20023;-72
2023/08/04 07:38:50;;;;;;;10.90;4.35;;;31.30;58.80;;;;;;4975873;28;20029;-73
2023/08/04 07:41:24;;;;;;;7.40;4.20;;;31.30;58.80;;;;;;4975926;28;20065;-72
2023/08/04 07:43:50;;;;;;;6.45;4.03;;;31.30;58.80;;;;;;4976172;28;20082;-72
2023/08/04 07:46:25;;;;;;;7.28;3.90;;;31.30;59.00;;;;;;4975670;28;20505;-72
2023/08/04 07:48:52;;;;;;;6.80;3.70;;;31.30;58.40;;;;;;4975763;28;20054;-72
2023/08/04 07:51:19;;;;;;;5.50;3.80;;;31.30;58.00;;;;;;4975716;28;20031;-73
2023/08/04 07:53:45;;;;;;;6.97;3.80;;;31.40;57.40;;;;;;4975847;28;20034;-73
2023/08/04 07:56:11;;;;;;;7.47;3.95;;;31.40;57.80;;;;;;4976050;28;20361;-73
2023/08/04 07:58:37;;;;;;;7.68;4.47;;;31.50;57.90;;;;;;4976186;28;20445;-72
2023/08/04 08:01:04;;;;;;;9.50;4.95;;;31.70;57.40;;;;;;4975795;28;20042;-72
2023/08/04 08:03:33;;;;;;;9.32;4.57;;;31.80;57.30;;;;;;4978888;28;20038;-73
2023/08/04 08:06:01;;;;;;;17.15;4.97;;;31.80;57.20;;;;;;4978197;28;20027;-72
2023/08/04 08:08:27;;;;;;;7.97;4.38;;;31.90;56.70;;;;;;4978434;28;20026;-72
2023/08/04 08:10:54;;;;;;;11.25;4.65;;;31.90;56.90;;;;;;4978745;28;20059;-73
2023/08/04 08:13:21;;;;;;;9.63;4.80;;;31.90;56.70;;;;;;4978883;28;20144;-72
2023/08/04 08:15:47;;;;;;;10.82;4.93;;;31.80;56.80;;;;;;4962046;28;20060;-73
2023/08/04 08:18:13;;;;;;;9.98;4.70;;;31.60;56.70;;;;;;4978599;28;20038;-72
2023/08/04 08:20:41;;;;;;;7.85;4.20;;;31.60;57.20;;;;;;4978930;28;20030;-73
2023/08/04 08:23:08;;;;;;;8.77;4.40;;;31.60;57.00;;;;;;4979109;28;20031;-73
2023/08/04 08:25:36;;;;;;;9.25;4.57;;;31.60;57.40;;;;;;4979038;28;20438;-72
2023/08/04 08:28:03;;;;;;;8.38;4.53;;;31.70;57.30;;;;;;4978096;28;20055;-72
2023/08/04 08:30:29;;;;;;;9.55;4.70;;;31.60;56.20;;;;;;4978728;28;20031;-72
2023/08/04 08:32:56;;;;;;;10.18;4.50;;;31.60;55.70;;;;;;4978623;28;20335;-73
2023/08/04 08:35:22;;;;;;;8.73;4.10;;;31.50;56.00;;;;;;4978928;28;20464;-72
2023/08/04 08:37:55;;;;;;;7.90;4.45;;;31.50;56.00;;;;;;4977581;28;20023;-72
2023/08/04 08:40:26;;;;;;;8.23;4.40;;;31.60;56.20;;;;;;4979180;28;20464;-72
2023/08/04 08:42:56;;;;;;;7.65;3.72;;;31.60;55.30;;;;;;4978743;28;20030;-72
2023/08/04 08:45:29;;;;;;;9.57;3.70;;;31.70;55.40;;;;;;4977665;28;20038;-72
2023/08/04 08:47:56;;;;;;;;;;;31.80;55.70;;;;;;4977880;28;20122;-72
2023/08/04 08:50:26;;;;;;;6.72;4.20;;;31.90;54.80;;;;;;4978946;28;20321;-72
2023/08/04 08:53:13;;;;;;;9.07;4.53;;;32.10;55.00;;;;;;4977311;28;20039;-73
2023/08/04 08:55:40;;;;;;;5.38;3.58;;;32.20;53.70;;;;;;4978221;28;20120;-73
2023/08/04 08:58:06;;;;;;;6.43;3.88;;;32.30;54.60;;;;;;4978492;28;20114;-72
2023/08/04 09:00:34;;;;;;;7.05;4.13;;;32.40;54.10;;;;;;4978291;28;20026;-72
2023/08/04 09:03:02;;;;;;;7.32;4.10;;;32.50;54.20;;;;;;4978196;28;20357;-72
2023/08/04 09:05:31;;;;;;;6.18;3.10;;;32.70;53.20;;;;;;4978442;28;20026;-72
2023/08/04 09:07:57;;;;;;;6.50;3.67;;;32.70;53.00;;;;;;4978559;28;20054;-72
2023/08/04 09:10:23;;;;;;;5.28;3.53;;;32.70;51.80;;;;;;4977827;28;20074;-72
2023/08/04 09:12:51;;;;;;;8.10;4.00;;;32.70;51.10;;;;;;4977669;28;20484;-72
2023/08/04 09:15:17;;;;;;;9.80;3.65;;;32.80;51.40;;;;;;4977456;28;20114;-72
2023/08/04 09:17:45;;;;;;;4.82;3.38;;;32.80;51.20;;;;;;4977826;28;20023;-72
2023/08/04 09:20:27;;;;;;;8.55;4.07;;;32.80;51.20;;;;;;4976953;28;20035;-72
2023/08/04 09:22:53;;;;;;;7.73;3.90;;;32.60;50.80;;;;;;4977755;28;20034;-72
2023/08/04 09:25:19;;;;;;;6.43;3.28;;;32.40;50.90;;;;;;4976771;28;20038;-73
2023/08/04 09:27:49;;;;;;;6.53;3.28;;;32.30;50.80;;;;;;4977608;28;20045;-72
2023/08/04 09:30:16;;;;;;;4.95;2.90;;;32.20;49.70;;;;;;4977873;28;20106;-72
2023/08/04 09:32:52;;;;;;;5.97;3.10;;;32.00;49.80;;;;;;4976904;28;20184;-72
2023/08/04 09:35:20;;;;;;;4.78;2.92;;;31.90;50.40;;;;;;4977569;28;20105;-72
2023/08/04 09:37:46;;;;;;;4.00;3.10;;;31.90;50.10;;;;;;4976487;28;20027;-72
2023/08/04 09:40:17;;;;;;;5.53;2.70;;;31.80;50.20;;;;;;4977383;28;20406;-72
2023/08/04 09:42:44;;;;;;;5.07;3.50;;;31.80;50.40;;;;;;4977441;28;20027;-72
2023/08/04 09:45:14;;;;;;;4.95;3.33;;;31.90;50.50;;;;;;4977318;28;20027;-72
2023/08/04 09:47:47;;;;;;;6.28;3.47;;;31.90;50.00;;;;;;4977225;28;20023;-72
2023/08/04 09:50:13;;;;;;;8.10;3.70;;;31.90;50.30;;;;;;4976619;28;20476;-72
2023/08/04 09:52:41;;;;;;;4.47;3.40;;;31.90;50.30;;;;;;4976200;28;20024;-72
2023/08/04 09:55:10;;;;;;;8.00;3.70;;;32.00;50.30;;;;;;4977597;28;20042;-72
2023/08/04 09:57:39;;;;;;;7.28;3.78;;;32.00;50.30;;;;;;4976999;28;20484;-73
2023/08/04 10:00:08;;;;;;;9.20;4.03;;;32.00;50.80;;;;;;4977306;28;20049;-72
2023/08/04 10:02:35;;;;;;;10.75;4.25;;;32.00;51.10;;;;;;4975964;28;20151;-72
2023/08/04 10:05:02;;;;;;;8.48;4.03;;;31.90;51.40;;;;;;4977451;28;20048;-72
2023/08/04 10:07:30;;;;;;;7.85;4.30;;;31.90;51.80;;;;;;4977105;28;20018;-73
2023/08/04 10:09:58;;;;;;;7.00;4.00;;;31.90;52.20;;;;;;4976619;28;20536;-72
2023/08/04 10:12:25;;;;;;;7.38;4.10;;;31.90;52.40;;;;;;4976739;28;20471;-72
2023/08/04 10:14:51;;;;;;;7.10;4.13;;;31.90;52.50;;;;;;4977355;28;20027;-72
2023/08/04 10:17:18;;;;;;;8.02;4.25;;;31.90;52.80;;;;;;4976236;28;20034;-72
2023/08/04 10:19:44;;;;;;;9.32;4.30;;;31.90;52.90;;;;;;4976287;28;20023;-72
2023/08/04 10:22:12;;;;;;;8.35;4.40;;;31.90;53.00;;;;;;4977638;28;20057;-72
2023/08/04 10:24:41;;;;;;;7.88;4.22;;;31.90;53.00;;;;;;4976621;28;20027;-72
2023/08/04 10:27:45;;;;;;;7.60;4.20;;;31.80;52.90;;;;;;4977359;28;20042;-72
2023/08/04 10:30:11;;;;;;;7.72;4.18;;;31.70;53.10;;;;;;4976955;28;20062;-73
2023/08/04 10:32:42;;;;;;;8.65;4.40;;;31.70;53.30;;;;;;4975453;28;20030;-72
2023/08/04 10:35:19;;;;;;;8.27;3.97;;;31.70;53.40;;;;;;4976672;28;20019;-72
2023/08/04 10:37:45;;;;;;;8.20;4.28;;;31.60;53.40;;;;;;4976342;28;20019;-72
2023/08/04 10:40:12;;;;;;;8.45;3.70;;;31.50;53.50;;;;;;4976431;28;20046;-72
2023/08/04 10:42:58;;;;;;;5.32;3.63;;;31.40;53.70;;;;;;4976461;28;20027;-72
2023/08/04 10:45:51;;;;;;;6.07;3.70;;;31.40;53.70;;;;;;4975452;28;20034;-72
2023/08/04 10:48:21;;;;;;;6.67;3.83;;;31.40;52.90;;;;;;4975395;28;20122;-72
2023/08/04 10:50:49;;;;;;;5.68;3.80;;;31.30;53.20;;;;;;4976697;28;20022;-72
2023/08/04 10:53:16;;;;;;;6.30;3.50;;;31.20;52.90;;;;;;4976356;28;20023;-72
2023/08/04 10:55:57;;;;;;;6.82;3.63;;;31.10;53.30;;;;;;4976306;28;20049;-72
2023/08/04 10:58:24;;;;;;;5.82;3.40;;;31.10;53.40;;;;;;4975600;28;20162;-72
2023/08/04 11:00:52;;;;;;;6.82;3.72;;;31.00;53.40;;;;;;4976571;28;20318;-72
2023/08/04 11:03:20;;;;;;;6.63;4.00;;;30.90;53.60;;;;;;4976585;28;20442;-72
2023/08/04 11:05:46;;;;;;;6.47;3.90;;;30.90;53.80;;;;;;4975325;28;20059;-72
2023/08/04 11:08:12;;;;;;;6.00;3.97;;;30.90;54.00;;;;;;4976330;28;20031;-72
2023/08/04 11:10:50;;;;;;;8.05;3.88;;;31.00;54.00;;;;;;4975984;28;20059;-72
2023/08/04 11:13:18;;;;;;;10.15;4.30;;;30.90;54.10;;;;;;4976012;28;20030;-72
2023/08/04 11:15:45;;;;;;;6.05;3.60;;;30.90;53.60;;;;;;4976390;28;20018;-72
2023/08/04 11:18:20;;;;;;;5.97;3.35;;;30.50;52.00;;;;;;4976324;28;20031;-72
2023/08/04 11:20:47;;;;;;;5.00;2.60;;;30.10;49.60;;;;;;4975225;28;20465;-72
2023/08/04 11:23:13;;;;;;;7.15;2.60;;;29.70;47.30;;;;;;4976333;28;20038;-72
2023/08/04 11:25:40;;;;;;;3.70;2.35;;;29.30;45.60;;;;;;4976281;28;20046;-72
2023/08/04 11:28:07;;;;;;;3.08;2.20;;;28.90;45.60;;;;;;4975016;28;20023;-72
2023/08/04 11:30:36;;;;;;;3.95;2.50;;;28.60;45.50;;;;;;4976015;28;20034;-72
2023/08/04 11:33:06;;;;;;;3.85;2.17;;;28.30;45.80;;;;;;4976147;28;20027;-71
2023/08/04 11:35:32;;;;;;;3.33;2.30;;;28.30;46.20;;;;;;4976007;28;20034;-72
2023/08/04 11:38:01;;;;;;;3.95;2.30;;;28.40;46.00;;;;;;4978715;28;20071;-72
2023/08/04 11:40:27;;;;;;;5.22;2.50;;;28.40;45.60;;;;;;4978781;28;20026;-72
2023/08/04 11:43:02;;;;;;;3.47;2.40;;;28.50;45.60;;;;;;4978594;28;20031;-72
2023/08/04 11:45:32;;;;;;;3.35;2.28;;;28.50;45.50;;;;;;4980123;28;20027;-72
2023/08/04 11:48:00;;;;;;;3.63;2.00;;;28.40;45.50;;;;;;4979456;28;20026;-72
2023/08/04 11:50:26;;;;;;;3.78;2.35;;;28.20;45.30;;;;;;4978511;28;20158;-72
2023/08/04 11:52:55;;;;;;;3.03;2.03;;;28.20;45.90;;;;;;4979339;28;20077;-71
2023/08/04 11:55:21;;;;;;;4.75;2.47;;;28.20;46.30;;;;;;4979842;28;20050;-71
2023/08/04 11:57:52;;;;;;;2.88;1.77;;;28.40;46.20;;;;;;4979028;28;20019;-71
2023/08/04 12:00:33;;;;;;;2.97;2.08;;;28.50;46.20;;;;;;4979035;28;20027;-72
2023/08/04 12:03:01;;;;;;;3.10;2.00;;;28.60;46.30;;;;;;4978039;28;20027;-72
2023/08/04 12:05:32;;;;;;;2.20;1.90;;;28.80;46.00;;;;;;4978158;28;20045;-72
2023/08/04 12:08:12;;;;;;;5.03;2.63;;;29.10;46.10;;;;;;4978099;28;20330;-72
2023/08/04 12:10:43;;;;;;;2.35;2.00;;;29.30;44.90;;;;;;4979018;28;20082;-71
2023/08/04 12:13:33;;;;;;;4.72;2.08;;;29.40;44.60;;;;;;4979339;28;20111;-71
2023/08/04 12:15:59;;;;;;;5.78;2.75;;;29.40;43.00;;;;;;4979017;28;20025;-71
2023/08/04 12:18:31;;;;;;;4.22;2.25;;;29.40;41.10;;;;;;4978929;28;20027;-72
2023/08/04 12:20:57;;;;;;;4.20;2.40;;;29.20;44.50;;;;;;4979182;28;20077;-72
2023/08/04 12:23:23;;;;;;;5.50;3.20;;;28.90;45.80;;;;;;4978876;28;20031;-71
2023/08/04 12:25:49;;;;;;;5.70;3.30;;;28.70;48.10;;;;;;4979125;28;20037;-71
2023/08/04 12:28:17;;;;;;;4.65;3.60;;;28.40;52.50;;;;;;4979122;28;20339;-71
2023/08/04 12:30:43;;;;;;;6.70;4.05;;;28.20;55.60;;;;;;4979015;28;20054;-71
2023/08/04 12:33:10;;;;;;;8.27;4.13;;;28.00;56.70;;;;;;4977700;28;20050;-71
2023/08/04 12:35:35;;;;;;;5.20;3.83;;;27.70;56.40;;;;;;4978679;28;20026;-71
2023/08/04 12:38:04;;;;;;;6.65;3.70;;;27.40;56.80;;;;;;4978787;28;20023;-71
2023/08/04 12:40:34;;;;;;;6.40;3.53;;;27.30;57.10;;;;;;4978548;28;20067;-71
2023/08/04 12:43:01;;;;;;;6.68;3.88;;;27.10;57.40;;;;;;4977717;28;20452;-71
2023/08/04 12:45:27;;;;;;;4.55;3.30;;;27.10;58.20;;;;;;4977692;28;20106;-71
2023/08/04 12:47:53;;;;;;;5.60;3.40;;;27.00;58.40;;;;;;4978194;28;20117;-72